sensor_id;sensor_type;location;lat;lon;timestamp;P1;durP1;ratioP1;P2;durP2;ratioP2
1577;SDS011;57623;53.608;10.004;2024-03-08T00:00:14;17.47;;;13.83;;
1577;SDS011;57623;53.608;10.004;2024-03-08T00:02:45;18.07;;;13.33;;
1577;SDS011;57623;53.608;10.004;2024-03-08T00:05:14;17.77;;;14.47;;
1577;SDS011;57623;53.608;10.004;2024-03-08T00:07:42;19.90;;;13.30;;
1577;SDS011;57623;53.608;10.004;2024-03-08T00:10:11;17.87;;;13.10;;
1577;SDS011;57623;53.608;10.004;2024-03-08T00:12:42;20.43;;;13.33;;
1577;SDS011;57623;53.608;10.004;2024-03-08T00:15:14;17.13;;;13.53;;
1577;SDS011;57623;53.608;10.004;2024-03-08T00:17:45;18.20;;;12.90;;
1577;SDS011;57623;53.608;10.004;2024-03-08T00:20:14;16.60;;;12.70;;
1577;SDS011;57623;53.608;10.004;2024-03-08T00:22:44;17.67;;;12.90;;
1577;SDS011;57623;53.608;10.004;2024-03-08T00:25:12;17.40;;;13.17;;
1577;SDS011;57623;53.608;10.004;2024-03-08T00:27:40;17.83;;;13.37;;
1577;SDS011;57623;53.608;10.004;2024-03-08T00:30:09;16.67;;;13.67;;
1577;SDS011;57623;53.608;10.004;2024-03-08T00:32:40;18.00;;;12.50;;
1577;SDS011;57623;53.608;10.004;2024-03-08T00:35:09;18.50;;;13.40;;
1577;SDS011;57623;53.608;10.004;2024-03-08T00:37:38;18.27;;;13.73;;
1577;SDS011;57623;53.608;10.004;2024-03-08T00:40:07;19.70;;;13.90;;
1577;SDS011;57623;53.608;10.004;2024-03-08T00:42:36;20.40;;;14.23;;
1577;SDS011;57623;53.608;10.004;2024-03-08T00:45:04;19.50;;;13.57;;
1577;SDS011;57623;53.608;10.004;2024-03-08T00:47:33;17.97;;;13.30;;
1577;SDS011;57623;53.608;10.004;2024-03-08T00:50:03;15.27;;;12.60;;
1577;SDS011;57623;53.608;10.004;2024-03-08T00:52:31;17.30;;;13.67;;
1577;SDS011;57623;53.608;10.004;2024-03-08T00:55:01;16.87;;;12.20;;
1577;SDS011;57623;53.608;10.004;2024-03-08T00:57:29;18.30;;;13.27;;
1577;SDS011;57623;53.608;10.004;2024-03-08T00:59:57;17.73;;;12.73;;
1577;SDS011;57623;53.608;10.004;2024-03-08T01:02:25;20.27;;;14.00;;
1577;SDS011;57623;53.608;10.004;2024-03-08T01:04:53;18.67;;;13.73;;
1577;SDS011;57623;53.608;10.004;2024-03-08T01:07:23;18.10;;;13.63;;
1577;SDS011;57623;53.608;10.004;2024-03-08T01:09:51;19.33;;;13.57;;
1577;SDS011;57623;53.608;10.004;2024-03-08T01:12:19;18.03;;;13.40;;
1577;SDS011;57623;53.608;10.004;2024-03-08T01:14:48;17.60;;;13.77;;
1577;SDS011;57623;53.608;10.004;2024-03-08T01:17:16;17.37;;;13.93;;
1577;SDS011;57623;53.608;10.004;2024-03-08T01:19:44;18.60;;;12.50;;
1577;SDS011;57623;53.608;10.004;2024-03-08T01:22:12;16.87;;;13.07;;
1577;SDS011;57623;53.608;10.004;2024-03-08T01:24:41;16.50;;;13.17;;
1577;SDS011;57623;53.608;10.004;2024-03-08T01:27:09;17.50;;;13.30;;
1577;SDS011;57623;53.608;10.004;2024-03-08T01:29:38;15.73;;;12.37;;
1577;SDS011;57623;53.608;10.004;2024-03-08T01:32:06;18.53;;;13.80;;
1577;SDS011;57623;53.608;10.004;2024-03-08T01:34:34;19.23;;;12.97;;
1577;SDS011;57623;53.608;10.004;2024-03-08T01:37:02;19.50;;;13.73;;
1577;SDS011;57623;53.608;10.004;2024-03-08T01:39:31;17.97;;;13.10;;
1577;SDS011;57623;53.608;10.004;2024-03-08T01:42:00;16.47;;;12.80;;
1577;SDS011;57623;53.608;10.004;2024-03-08T01:44:28;22.43;;;14.53;;
1577;SDS011;57623;53.608;10.004;2024-03-08T01:46:57;21.80;;;13.13;;
1577;SDS011;57623;53.608;10.004;2024-03-08T01:49:26;17.80;;;13.20;;
1577;SDS011;57623;53.608;10.004;2024-03-08T01:51:55;21.53;;;14.10;;
1577;SDS011;57623;53.608;10.004;2024-03-08T01:54:23;17.80;;;13.30;;
1577;SDS011;57623;53.608;10.004;2024-03-08T01:56:51;18.73;;;12.97;;
1577;SDS011;57623;53.608;10.004;2024-03-08T01:59:22;18.37;;;13.60;;
1577;SDS011;57623;53.608;10.004;2024-03-08T02:01:51;18.13;;;12.60;;
1577;SDS011;57623;53.608;10.004;2024-03-08T02:04:19;19.10;;;13.00;;
1577;SDS011;57623;53.608;10.004;2024-03-08T02:06:48;18.70;;;13.40;;
1577;SDS011;57623;53.608;10.004;2024-03-08T02:09:16;17.40;;;13.27;;
1577;SDS011;57623;53.608;10.004;2024-03-08T02:11:44;17.40;;;12.90;;
1577;SDS011;57623;53.608;10.004;2024-03-08T02:14:13;17.13;;;13.43;;
1577;SDS011;57623;53.608;10.004;2024-03-08T02:16:42;17.30;;;12.57;;
1577;SDS011;57623;53.608;10.004;2024-03-08T02:19:10;18.30;;;13.30;;
1577;SDS011;57623;53.608;10.004;2024-03-08T02:21:40;18.80;;;12.77;;
1577;SDS011;57623;53.608;10.004;2024-03-08T02:24:08;18.33;;;13.10;;
1577;SDS011;57623;53.608;10.004;2024-03-08T02:26:36;19.50;;;13.97;;
1577;SDS011;57623;53.608;10.004;2024-03-08T02:29:04;16.93;;;12.60;;
1577;SDS011;57623;53.608;10.004;2024-03-08T02:31:35;17.00;;;12.50;;
1577;SDS011;57623;53.608;10.004;2024-03-08T02:34:05;20.53;;;13.60;;
1577;SDS011;57623;53.608;10.004;2024-03-08T02:36:33;16.37;;;12.37;;
1577;SDS011;57623;53.608;10.004;2024-03-08T02:39:03;18.30;;;13.30;;
1577;SDS011;57623;53.608;10.004;2024-03-08T02:41:31;16.33;;;12.37;;
1577;SDS011;57623;53.608;10.004;2024-03-08T02:43:59;17.40;;;12.97;;
1577;SDS011;57623;53.608;10.004;2024-03-08T02:46:28;18.40;;;14.33;;
1577;SDS011;57623;53.608;10.004;2024-03-08T02:48:56;18.97;;;13.13;;
1577;SDS011;57623;53.608;10.004;2024-03-08T02:51:24;16.77;;;12.67;;
1577;SDS011;57623;53.608;10.004;2024-03-08T02:53:53;17.87;;;12.67;;
1577;SDS011;57623;53.608;10.004;2024-03-08T02:56:22;19.03;;;13.70;;
1577;SDS011;57623;53.608;10.004;2024-03-08T02:58:50;17.97;;;13.50;;
1577;SDS011;57623;53.608;10.004;2024-03-08T03:01:18;20.20;;;13.40;;
1577;SDS011;57623;53.608;10.004;2024-03-08T03:03:46;20.47;;;14.17;;
1577;SDS011;57623;53.608;10.004;2024-03-08T03:06:14;19.77;;;13.40;;
1577;SDS011;57623;53.608;10.004;2024-03-08T03:08:43;17.60;;;13.03;;
1577;SDS011;57623;53.608;10.004;2024-03-08T03:11:12;19.97;;;13.73;;
1577;SDS011;57623;53.608;10.004;2024-03-08T03:13:42;17.17;;;13.00;;
1577;SDS011;57623;53.608;10.004;2024-03-08T03:16:16;17.30;;;12.93;;
1577;SDS011;57623;53.608;10.004;2024-03-08T03:18:46;18.80;;;13.40;;
1577;SDS011;57623;53.608;10.004;2024-03-08T03:21:15;24.00;;;15.03;;
1577;SDS011;57623;53.608;10.004;2024-03-08T03:23:43;20.40;;;13.47;;
1577;SDS011;57623;53.608;10.004;2024-03-08T03:26:12;20.70;;;13.60;;
1577;SDS011;57623;53.608;10.004;2024-03-08T03:28:45;20.70;;;13.40;;
1577;SDS011;57623;53.608;10.004;2024-03-08T03:31:13;15.80;;;11.63;;
1577;SDS011;57623;53.608;10.004;2024-03-08T03:33:41;17.40;;;12.90;;
1577;SDS011;57623;53.608;10.004;2024-03-08T03:36:09;19.37;;;13.07;;
1577;SDS011;57623;53.608;10.004;2024-03-08T03:38:38;17.50;;;12.83;;
1577;SDS011;57623;53.608;10.004;2024-03-08T03:41:06;17.10;;;13.30;;
1577;SDS011;57623;53.608;10.004;2024-03-08T03:43:37;18.13;;;13.40;;
1577;SDS011;57623;53.608;10.004;2024-03-08T03:46:07;18.80;;;13.07;;
1577;SDS011;57623;53.608;10.004;2024-03-08T03:48:37;19.30;;;12.53;;
1577;SDS011;57623;53.608;10.004;2024-03-08T03:51:05;18.73;;;13.00;;
1577;SDS011;57623;53.608;10.004;2024-03-08T03:53:33;20.83;;;13.03;;
1577;SDS011;57623;53.608;10.004;2024-03-08T03:56:02;19.83;;;13.53;;
1577;SDS011;57623;53.608;10.004;2024-03-08T03:58:33;19.07;;;13.40;;
1577;SDS011;57623;53.608;10.004;2024-03-08T04:01:01;19.30;;;13.80;;
1577;SDS011;57623;53.608;10.004;2024-03-08T04:03:33;17.77;;;13.60;;
1577;SDS011;57623;53.608;10.004;2024-03-08T04:06:01;17.70;;;12.20;;
1577;SDS011;57623;53.608;10.004;2024-03-08T04:08:29;18.87;;;13.03;;
1577;SDS011;57623;53.608;10.004;2024-03-08T04:11:00;25.20;;;13.60;;
1577;SDS011;57623;53.608;10.004;2024-03-08T04:13:28;22.03;;;13.50;;
1577;SDS011;57623;53.608;10.004;2024-03-08T04:16:04;19.93;;;13.80;;
1577;SDS011;57623;53.608;10.004;2024-03-08T04:18:35;17.87;;;13.57;;
1577;SDS011;57623;53.608;10.004;2024-03-08T04:21:04;17.80;;;13.23;;
1577;SDS011;57623;53.608;10.004;2024-03-08T04:23:33;20.30;;;13.90;;
1577;SDS011;57623;53.608;10.004;2024-03-08T04:26:02;18.33;;;12.47;;
1577;SDS011;57623;53.608;10.004;2024-03-08T04:28:32;16.57;;;12.47;;
1577;SDS011;57623;53.608;10.004;2024-03-08T04:31:00;17.70;;;13.20;;
1577;SDS011;57623;53.608;10.004;2024-03-08T04:33:28;19.10;;;13.70;;
1577;SDS011;57623;53.608;10.004;2024-03-08T04:35:58;21.33;;;13.90;;
1577;SDS011;57623;53.608;10.004;2024-03-08T04:38:26;16.80;;;13.00;;
1577;SDS011;57623;53.608;10.004;2024-03-08T04:40:54;18.40;;;13.40;;
1577;SDS011;57623;53.608;10.004;2024-03-08T04:43:22;17.60;;;13.00;;
1577;SDS011;57623;53.608;10.004;2024-03-08T04:45:52;17.40;;;12.57;;
1577;SDS011;57623;53.608;10.004;2024-03-08T04:48:20;25.53;;;14.17;;
1577;SDS011;57623;53.608;10.004;2024-03-08T04:50:49;19.43;;;13.13;;
1577;SDS011;57623;53.608;10.004;2024-03-08T04:53:18;19.37;;;13.00;;
1577;SDS011;57623;53.608;10.004;2024-03-08T04:55:46;17.37;;;12.87;;
1577;SDS011;57623;53.608;10.004;2024-03-08T04:58:14;19.53;;;12.90;;
1577;SDS011;57623;53.608;10.004;2024-03-08T05:00:42;19.73;;;13.37;;
1577;SDS011;57623;53.608;10.004;2024-03-08T05:03:10;20.33;;;13.70;;
1577;SDS011;57623;53.608;10.004;2024-03-08T05:05:38;19.40;;;12.90;;
1577;SDS011;57623;53.608;10.004;2024-03-08T05:08:06;20.30;;;13.30;;
1577;SDS011;57623;53.608;10.004;2024-03-08T05:10:36;19.07;;;13.63;;
1577;SDS011;57623;53.608;10.004;2024-03-08T05:13:04;20.70;;;13.50;;
1577;SDS011;57623;53.608;10.004;2024-03-08T05:15:32;20.67;;;13.90;;
1577;SDS011;57623;53.608;10.004;2024-03-08T05:18:01;20.47;;;13.83;;
1577;SDS011;57623;53.608;10.004;2024-03-08T05:20:29;18.73;;;13.37;;
1577;SDS011;57623;53.608;10.004;2024-03-08T05:22:58;19.90;;;13.53;;
1577;SDS011;57623;53.608;10.004;2024-03-08T05:25:27;17.33;;;12.53;;
1577;SDS011;57623;53.608;10.004;2024-03-08T05:27:56;20.63;;;14.20;;
1577;SDS011;57623;53.608;10.004;2024-03-08T05:30:24;21.87;;;14.13;;
1577;SDS011;57623;53.608;10.004;2024-03-08T05:32:52;18.80;;;13.50;;
1577;SDS011;57623;53.608;10.004;2024-03-08T05:35:20;23.47;;;14.80;;
1577;SDS011;57623;53.608;10.004;2024-03-08T05:37:48;22.47;;;14.07;;
1577;SDS011;57623;53.608;10.004;2024-03-08T05:40:16;21.67;;;13.60;;
1577;SDS011;57623;53.608;10.004;2024-03-08T05:42:48;20.07;;;14.40;;
1577;SDS011;57623;53.608;10.004;2024-03-08T05:45:17;22.07;;;14.73;;
1577;SDS011;57623;53.608;10.004;2024-03-08T05:47:46;21.27;;;14.77;;
1577;SDS011;57623;53.608;10.004;2024-03-08T05:50:15;27.40;;;15.00;;
1577;SDS011;57623;53.608;10.004;2024-03-08T05:52:43;23.43;;;14.87;;
1577;SDS011;57623;53.608;10.004;2024-03-08T05:55:11;19.00;;;13.27;;
1577;SDS011;57623;53.608;10.004;2024-03-08T05:57:40;21.93;;;14.30;;
1577;SDS011;57623;53.608;10.004;2024-03-08T06:00:08;19.13;;;13.83;;
1577;SDS011;57623;53.608;10.004;2024-03-08T06:02:39;21.97;;;13.80;;
1577;SDS011;57623;53.608;10.004;2024-03-08T06:05:08;20.17;;;14.20;;
1577;SDS011;57623;53.608;10.004;2024-03-08T06:07:37;20.97;;;14.10;;
1577;SDS011;57623;53.608;10.004;2024-03-08T06:10:07;18.93;;;13.87;;
1577;SDS011;57623;53.608;10.004;2024-03-08T06:12:38;22.83;;;14.40;;
1577;SDS011;57623;53.608;10.004;2024-03-08T06:15:08;23.23;;;15.20;;
1577;SDS011;57623;53.608;10.004;2024-03-08T06:17:42;21.00;;;14.97;;
1577;SDS011;57623;53.608;10.004;2024-03-08T06:20:11;20.70;;;14.57;;
1577;SDS011;57623;53.608;10.004;2024-03-08T06:22:39;21.13;;;14.77;;
1577;SDS011;57623;53.608;10.004;2024-03-08T06:25:08;24.93;;;15.57;;
1577;SDS011;57623;53.608;10.004;2024-03-08T06:27:37;23.83;;;16.07;;
1577;SDS011;57623;53.608;10.004;2024-03-08T06:30:06;21.83;;;14.90;;
1577;SDS011;57623;53.608;10.004;2024-03-08T06:32:36;25.03;;;16.00;;
1577;SDS011;57623;53.608;10.004;2024-03-08T06:35:06;20.27;;;15.03;;
1577;SDS011;57623;53.608;10.004;2024-03-08T06:37:36;19.87;;;14.67;;
1577;SDS011;57623;53.608;10.004;2024-03-08T06:40:04;26.00;;;16.33;;
1577;SDS011;57623;53.608;10.004;2024-03-08T06:42:34;21.90;;;13.90;;
1577;SDS011;57623;53.608;10.004;2024-03-08T06:45:02;22.90;;;14.77;;
1577;SDS011;57623;53.608;10.004;2024-03-08T06:47:32;26.70;;;14.90;;
1577;SDS011;57623;53.608;10.004;2024-03-08T06:50:01;24.60;;;14.97;;
1577;SDS011;57623;53.608;10.004;2024-03-08T06:52:31;22.20;;;14.70;;
1577;SDS011;57623;53.608;10.004;2024-03-08T06:54:59;23.10;;;14.63;;
1577;SDS011;57623;53.608;10.004;2024-03-08T06:57:28;24.70;;;16.80;;
1577;SDS011;57623;53.608;10.004;2024-03-08T06:59:56;24.60;;;15.30;;
1577;SDS011;57623;53.608;10.004;2024-03-08T07:02:24;27.87;;;16.67;;
1577;SDS011;57623;53.608;10.004;2024-03-08T07:04:52;22.60;;;15.80;;
1577;SDS011;57623;53.608;10.004;2024-03-08T07:07:20;26.03;;;16.57;;
1577;SDS011;57623;53.608;10.004;2024-03-08T07:09:50;24.33;;;16.90;;
1577;SDS011;57623;53.608;10.004;2024-03-08T07:12:18;24.87;;;16.50;;
1577;SDS011;57623;53.608;10.004;2024-03-08T07:14:47;23.30;;;14.97;;
1577;SDS011;57623;53.608;10.004;2024-03-08T07:17:15;23.00;;;14.73;;
1577;SDS011;57623;53.608;10.004;2024-03-08T07:19:43;29.53;;;16.87;;
1577;SDS011;57623;53.608;10.004;2024-03-08T07:22:14;24.70;;;16.57;;
1577;SDS011;57623;53.608;10.004;2024-03-08T07:24:42;25.53;;;15.40;;
1577;SDS011;57623;53.608;10.004;2024-03-08T07:27:32;22.67;;;16.70;;
1577;SDS011;57623;53.608;10.004;2024-03-08T07:30:00;22.00;;;15.90;;
1577;SDS011;57623;53.608;10.004;2024-03-08T07:32:31;24.33;;;16.07;;
1577;SDS011;57623;53.608;10.004;2024-03-08T07:34:59;26.00;;;17.63;;
1577;SDS011;57623;53.608;10.004;2024-03-08T07:37:28;25.23;;;15.80;;
1577;SDS011;57623;53.608;10.004;2024-03-08T07:39:56;21.87;;;15.80;;
1577;SDS011;57623;53.608;10.004;2024-03-08T07:42:25;28.10;;;15.70;;
1577;SDS011;57623;53.608;10.004;2024-03-08T07:44:56;29.07;;;17.80;;
1577;SDS011;57623;53.608;10.004;2024-03-08T07:47:24;22.93;;;15.97;;
1577;SDS011;57623;53.608;10.004;2024-03-08T07:49:52;23.20;;;16.10;;
1577;SDS011;57623;53.608;10.004;2024-03-08T07:52:21;24.37;;;16.80;;
1577;SDS011;57623;53.608;10.004;2024-03-08T07:54:49;25.70;;;17.60;;
1577;SDS011;57623;53.608;10.004;2024-03-08T07:57:17;24.97;;;16.10;;
1577;SDS011;57623;53.608;10.004;2024-03-08T07:59:46;23.80;;;16.50;;
1577;SDS011;57623;53.608;10.004;2024-03-08T08:02:17;25.47;;;16.47;;
1577;SDS011;57623;53.608;10.004;2024-03-08T08:04:45;23.23;;;16.00;;
1577;SDS011;57623;53.608;10.004;2024-03-08T08:07:13;25.80;;;16.73;;
1577;SDS011;57623;53.608;10.004;2024-03-08T08:09:42;22.47;;;16.27;;
1577;SDS011;57623;53.608;10.004;2024-03-08T08:12:10;25.57;;;17.93;;
1577;SDS011;57623;53.608;10.004;2024-03-08T08:14:39;26.53;;;18.07;;
1577;SDS011;57623;53.608;10.004;2024-03-08T08:17:07;32.63;;;20.30;;
1577;SDS011;57623;53.608;10.004;2024-03-08T08:19:37;27.23;;;18.33;;
1577;SDS011;57623;53.608;10.004;2024-03-08T08:22:05;26.00;;;18.13;;
1577;SDS011;57623;53.608;10.004;2024-03-08T08:24:35;24.13;;;18.80;;
1577;SDS011;57623;53.608;10.004;2024-03-08T08:27:04;26.40;;;16.90;;
1577;SDS011;57623;53.608;10.004;2024-03-08T08:29:33;23.10;;;15.63;;
1577;SDS011;57623;53.608;10.004;2024-03-08T08:32:01;25.97;;;17.50;;
1577;SDS011;57623;53.608;10.004;2024-03-08T08:34:30;24.03;;;17.30;;
1577;SDS011;57623;53.608;10.004;2024-03-08T08:37:00;23.67;;;17.13;;
1577;SDS011;57623;53.608;10.004;2024-03-08T08:39:28;23.47;;;17.50;;
1577;SDS011;57623;53.608;10.004;2024-03-08T08:41:56;25.33;;;17.23;;
1577;SDS011;57623;53.608;10.004;2024-03-08T08:44:24;24.40;;;16.03;;
1577;SDS011;57623;53.608;10.004;2024-03-08T08:46:53;25.37;;;16.70;;
1577;SDS011;57623;53.608;10.004;2024-03-08T08:49:31;30.70;;;18.33;;
1577;SDS011;57623;53.608;10.004;2024-03-08T08:52:00;25.60;;;18.00;;
1577;SDS011;57623;53.608;10.004;2024-03-08T08:54:41;26.33;;;16.93;;
1577;SDS011;57623;53.608;10.004;2024-03-08T08:57:09;27.37;;;17.60;;
1577;SDS011;57623;53.608;10.004;2024-03-08T08:59:37;24.20;;;17.07;;
1577;SDS011;57623;53.608;10.004;2024-03-08T09:02:06;25.93;;;17.50;;
1577;SDS011;57623;53.608;10.004;2024-03-08T09:04:35;24.10;;;16.80;;
1577;SDS011;57623;53.608;10.004;2024-03-08T09:07:05;23.60;;;17.40;;
1577;SDS011;57623;53.608;10.004;2024-03-08T09:09:33;25.97;;;17.40;;
1577;SDS011;57623;53.608;10.004;2024-03-08T09:12:01;26.57;;;17.67;;
1577;SDS011;57623;53.608;10.004;2024-03-08T09:14:29;21.90;;;15.60;;
1577;SDS011;57623;53.608;10.004;2024-03-08T09:16:57;24.53;;;17.83;;
1577;SDS011;57623;53.608;10.004;2024-03-08T09:19:25;24.33;;;17.10;;
1577;SDS011;57623;53.608;10.004;2024-03-08T09:21:54;22.53;;;17.67;;
1577;SDS011;57623;53.608;10.004;2024-03-08T09:24:24;23.27;;;16.87;;
1577;SDS011;57623;53.608;10.004;2024-03-08T09:26:52;21.70;;;16.37;;
1577;SDS011;57623;53.608;10.004;2024-03-08T09:29:20;22.17;;;16.67;;
1577;SDS011;57623;53.608;10.004;2024-03-08T09:31:48;20.80;;;15.83;;
1577;SDS011;57623;53.608;10.004;2024-03-08T09:34:16;23.60;;;17.60;;
1577;SDS011;57623;53.608;10.004;2024-03-08T09:36:50;22.20;;;16.43;;
1577;SDS011;57623;53.608;10.004;2024-03-08T09:39:19;23.70;;;17.63;;
1577;SDS011;57623;53.608;10.004;2024-03-08T09:41:51;20.80;;;15.60;;
1577;SDS011;57623;53.608;10.004;2024-03-08T09:44:19;22.03;;;17.00;;
1577;SDS011;57623;53.608;10.004;2024-03-08T09:46:47;23.77;;;17.13;;
1577;SDS011;57623;53.608;10.004;2024-03-08T09:49:15;20.77;;;16.20;;
1577;SDS011;57623;53.608;10.004;2024-03-08T09:51:43;23.07;;;16.47;;
1577;SDS011;57623;53.608;10.004;2024-03-08T09:54:12;23.47;;;16.67;;
1577;SDS011;57623;53.608;10.004;2024-03-08T09:56:49;21.97;;;16.80;;
1577;SDS011;57623;53.608;10.004;2024-03-08T09:59:19;22.67;;;17.13;;
1577;SDS011;57623;53.608;10.004;2024-03-08T10:02:10;21.27;;;15.97;;
1577;SDS011;57623;53.608;10.004;2024-03-08T10:04:42;23.37;;;16.70;;
1577;SDS011;57623;53.608;10.004;2024-03-08T10:07:13;24.30;;;15.87;;
1577;SDS011;57623;53.608;10.004;2024-03-08T10:09:42;22.20;;;16.30;;
1577;SDS011;57623;53.608;10.004;2024-03-08T10:12:17;21.03;;;16.20;;
1577;SDS011;57623;53.608;10.004;2024-03-08T10:14:46;23.53;;;17.00;;
1577;SDS011;57623;53.608;10.004;2024-03-08T10:17:14;21.27;;;16.80;;
1577;SDS011;57623;53.608;10.004;2024-03-08T10:19:49;20.90;;;16.30;;
1577;SDS011;57623;53.608;10.004;2024-03-08T10:22:18;20.77;;;15.57;;
1577;SDS011;57623;53.608;10.004;2024-03-08T10:24:46;25.10;;;16.50;;
1577;SDS011;57623;53.608;10.004;2024-03-08T10:27:17;23.60;;;17.00;;
1577;SDS011;57623;53.608;10.004;2024-03-08T10:29:46;22.20;;;16.03;;
1577;SDS011;57623;53.608;10.004;2024-03-08T10:32:15;22.40;;;17.00;;
1577;SDS011;57623;53.608;10.004;2024-03-08T10:34:43;21.63;;;15.90;;
1577;SDS011;57623;53.608;10.004;2024-03-08T10:37:12;23.20;;;17.03;;
1577;SDS011;57623;53.608;10.004;2024-03-08T10:39:46;20.70;;;16.00;;
1577;SDS011;57623;53.608;10.004;2024-03-08T10:42:25;22.97;;;16.93;;
1577;SDS011;57623;53.608;10.004;2024-03-08T10:44:58;24.17;;;15.70;;
1577;SDS011;57623;53.608;10.004;2024-03-08T10:47:34;24.77;;;16.97;;
1577;SDS011;57623;53.608;10.004;2024-03-08T10:50:09;20.83;;;15.87;;
1577;SDS011;57623;53.608;10.004;2024-03-08T10:52:47;22.10;;;16.30;;
1577;SDS011;57623;53.608;10.004;2024-03-08T10:55:17;23.33;;;15.70;;
1577;SDS011;57623;53.608;10.004;2024-03-08T10:57:48;20.70;;;15.90;;
1577;SDS011;57623;53.608;10.004;2024-03-08T11:00:17;17.57;;;14.20;;
1577;SDS011;57623;53.608;10.004;2024-03-08T11:02:53;21.97;;;14.80;;
1577;SDS011;57623;53.608;10.004;2024-03-08T11:05:31;18.67;;;14.70;;
1577;SDS011;57623;53.608;10.004;2024-03-08T11:08:15;25.10;;;16.40;;
1577;SDS011;57623;53.608;10.004;2024-03-08T11:10:49;19.27;;;15.10;;
1577;SDS011;57623;53.608;10.004;2024-03-08T11:13:36;18.00;;;14.10;;
1577;SDS011;57623;53.608;10.004;2024-03-08T11:16:07;20.83;;;13.40;;
1577;SDS011;57623;53.608;10.004;2024-03-08T11:18:36;18.57;;;13.93;;
1577;SDS011;57623;53.608;10.004;2024-03-08T11:21:05;17.67;;;14.27;;
1577;SDS011;57623;53.608;10.004;2024-03-08T11:23:39;19.70;;;14.17;;
1577;SDS011;57623;53.608;10.004;2024-03-08T11:26:17;16.97;;;13.60;;
1577;SDS011;57623;53.608;10.004;2024-03-08T11:28:46;17.77;;;14.07;;
1577;SDS011;57623;53.608;10.004;2024-03-08T11:31:23;19.40;;;14.60;;
1577;SDS011;57623;53.608;10.004;2024-03-08T11:33:53;17.37;;;13.57;;
1577;SDS011;57623;53.608;10.004;2024-03-08T11:36:23;17.80;;;13.70;;
1577;SDS011;57623;53.608;10.004;2024-03-08T11:38:52;15.43;;;13.27;;
1577;SDS011;57623;53.608;10.004;2024-03-08T11:41:22;17.23;;;13.20;;
1577;SDS011;57623;53.608;10.004;2024-03-08T11:44:02;16.80;;;13.97;;
1577;SDS011;57623;53.608;10.004;2024-03-08T11:46:33;16.47;;;13.90;;
1577;SDS011;57623;53.608;10.004;2024-03-08T11:49:01;16.80;;;14.03;;
1577;SDS011;57623;53.608;10.004;2024-03-08T11:51:29;18.13;;;13.60;;
1577;SDS011;57623;53.608;10.004;2024-03-08T11:53:59;18.30;;;14.07;;
1577;SDS011;57623;53.608;10.004;2024-03-08T11:56:27;18.70;;;14.10;;
1577;SDS011;57623;53.608;10.004;2024-03-08T11:58:56;18.00;;;14.57;;
1577;SDS011;57623;53.608;10.004;2024-03-08T12:01:26;18.73;;;14.70;;
1577;SDS011;57623;53.608;10.004;2024-03-08T12:03:54;17.97;;;14.47;;
1577;SDS011;57623;53.608;10.004;2024-03-08T12:06:25;15.67;;;13.73;;
1577;SDS011;57623;53.608;10.004;2024-03-08T12:08:53;17.40;;;14.40;;
1577;SDS011;57623;53.608;10.004;2024-03-08T12:11:21;14.30;;;12.63;;
1577;SDS011;57623;53.608;10.004;2024-03-08T12:13:51;16.00;;;13.70;;
1577;SDS011;57623;53.608;10.004;2024-03-08T12:16:20;16.50;;;12.47;;
1577;SDS011;57623;53.608;10.004;2024-03-08T12:18:50;16.90;;;13.40;;
1577;SDS011;57623;53.608;10.004;2024-03-08T12:21:20;15.80;;;13.37;;
1577;SDS011;57623;53.608;10.004;2024-03-08T12:24:01;15.47;;;13.70;;
1577;SDS011;57623;53.608;10.004;2024-03-08T12:26:31;15.27;;;13.10;;
1577;SDS011;57623;53.608;10.004;2024-03-08T12:29:14;17.07;;;13.87;;
1577;SDS011;57623;53.608;10.004;2024-03-08T12:31:46;16.33;;;13.80;;
1577;SDS011;57623;53.608;10.004;2024-03-08T12:34:16;16.50;;;13.77;;
1577;SDS011;57623;53.608;10.004;2024-03-08T12:36:44;15.40;;;12.73;;
1577;SDS011;57623;53.608;10.004;2024-03-08T12:39:18;15.70;;;12.80;;
1577;SDS011;57623;53.608;10.004;2024-03-08T12:41:49;14.83;;;13.30;;
1577;SDS011;57623;53.608;10.004;2024-03-08T12:44:18;15.63;;;13.43;;
1577;SDS011;57623;53.608;10.004;2024-03-08T12:46:48;15.77;;;14.10;;
1577;SDS011;57623;53.608;10.004;2024-03-08T12:49:20;16.30;;;14.77;;
1577;SDS011;57623;53.608;10.004;2024-03-08T12:51:49;15.80;;;14.30;;
1577;SDS011;57623;53.608;10.004;2024-03-08T12:54:19;15.80;;;14.40;;
1577;SDS011;57623;53.608;10.004;2024-03-08T12:56:49;15.90;;;14.50;;
1577;SDS011;57623;53.608;10.004;2024-03-08T12:59:19;16.43;;;14.93;;
1577;SDS011;57623;53.608;10.004;2024-03-08T13:01:49;16.63;;;15.10;;
1577;SDS011;57623;53.608;10.004;2024-03-08T13:04:21;16.07;;;14.73;;
1577;SDS011;57623;53.608;10.004;2024-03-08T13:06:49;17.23;;;15.80;;
1577;SDS011;57623;53.608;10.004;2024-03-08T13:09:20;15.60;;;14.30;;
1577;SDS011;57623;53.608;10.004;2024-03-08T13:11:49;15.17;;;14.07;;
1577;SDS011;57623;53.608;10.004;2024-03-08T13:14:18;15.37;;;14.10;;
1577;SDS011;57623;53.608;10.004;2024-03-08T13:16:46;14.83;;;13.73;;
1577;SDS011;57623;53.608;10.004;2024-03-08T13:19:15;14.53;;;13.33;;
1577;SDS011;57623;53.608;10.004;2024-03-08T13:21:45;14.67;;;13.53;;
1577;SDS011;57623;53.608;10.004;2024-03-08T13:24:16;15.40;;;14.13;;
1577;SDS011;57623;53.608;10.004;2024-03-08T13:26:45;14.60;;;13.20;;
1577;SDS011;57623;53.608;10.004;2024-03-08T13:29:14;15.00;;;13.90;;
1577;SDS011;57623;53.608;10.004;2024-03-08T13:31:42;15.83;;;14.47;;
1577;SDS011;57623;53.608;10.004;2024-03-08T13:34:10;15.27;;;13.97;;
1577;SDS011;57623;53.608;10.004;2024-03-08T13:36:38;14.60;;;13.30;;
1577;SDS011;57623;53.608;10.004;2024-03-08T13:39:12;15.57;;;14.17;;
1577;SDS011;57623;53.608;10.004;2024-03-08T13:41:42;15.20;;;13.93;;
1577;SDS011;57623;53.608;10.004;2024-03-08T13:44:11;15.03;;;13.83;;
1577;SDS011;57623;53.608;10.004;2024-03-08T13:46:39;15.00;;;13.60;;
1577;SDS011;57623;53.608;10.004;2024-03-08T13:49:08;15.13;;;13.70;;
1577;SDS011;57623;53.608;10.004;2024-03-08T13:51:37;14.83;;;13.63;;
1577;SDS011;57623;53.608;10.004;2024-03-08T13:54:05;14.57;;;13.37;;
1577;SDS011;57623;53.608;10.004;2024-03-08T13:56:35;14.53;;;13.13;;
1577;SDS011;57623;53.608;10.004;2024-03-08T13:59:03;13.63;;;12.50;;
1577;SDS011;57623;53.608;10.004;2024-03-08T14:01:31;14.73;;;13.53;;
1577;SDS011;57623;53.608;10.004;2024-03-08T14:04:02;14.67;;;13.37;;
1577;SDS011;57623;53.608;10.004;2024-03-08T14:06:30;15.33;;;12.60;;
1577;SDS011;57623;53.608;10.004;2024-03-08T14:08:58;14.97;;;13.67;;
1577;SDS011;57623;53.608;10.004;2024-03-08T14:11:27;13.97;;;12.67;;
1577;SDS011;57623;53.608;10.004;2024-03-08T14:13:56;14.40;;;12.90;;
1577;SDS011;57623;53.608;10.004;2024-03-08T14:16:24;14.00;;;12.60;;
1577;SDS011;57623;53.608;10.004;2024-03-08T14:18:53;13.53;;;12.27;;
1577;SDS011;57623;53.608;10.004;2024-03-08T14:21:21;13.43;;;12.13;;
1577;SDS011;57623;53.608;10.004;2024-03-08T14:23:49;14.13;;;12.83;;
1577;SDS011;57623;53.608;10.004;2024-03-08T14:26:18;14.27;;;12.50;;
1577;SDS011;57623;53.608;10.004;2024-03-08T14:28:47;12.70;;;11.50;;
1577;SDS011;57623;53.608;10.004;2024-03-08T14:31:19;13.93;;;12.63;;
1577;SDS011;57623;53.608;10.004;2024-03-08T14:33:52;16.23;;;14.23;;